createdAt,value
2022-11-21T00:01:20.546Z,19.63
2022-11-21T00:03:47.997Z,15.82
2022-11-21T00:06:15.304Z,14.35
2022-11-21T00:08:42.438Z,15.15
2022-11-21T00:11:09.372Z,18.95
2022-11-21T00:13:36.375Z,18.35
2022-11-21T00:16:08.392Z,19.85
2022-11-21T00:18:35.959Z,16.73
2022-11-21T00:21:12.003Z,16.98
2022-11-21T00:23:38.916Z,18.58
2022-11-21T00:26:08.149Z,16.63
2022-11-21T00:28:35.725Z,17.67
2022-11-21T00:31:03.378Z,19.27
2022-11-21T00:33:30.554Z,19.85
2022-11-21T00:35:57.656Z,15.95
2022-11-21T00:38:24.500Z,17.30
2022-11-21T00:40:51.359Z,16.17
2022-11-21T00:43:18.300Z,19.00
2022-11-21T00:45:45.148Z,19.15
2022-11-21T00:48:11.990Z,18.25
2022-11-21T00:50:38.895Z,9.68
2022-11-21T00:53:05.838Z,17.70
2022-11-21T00:55:32.782Z,18.13
2022-11-21T00:57:59.644Z,18.25
2022-11-21T01:00:26.554Z,16.52
2022-11-21T01:02:53.458Z,16.83
2022-11-21T01:05:20.459Z,16.80
2022-11-21T01:07:49.184Z,17.98
2022-11-21T01:10:16.500Z,17.40
2022-11-21T01:12:44.622Z,16.38
2022-11-21T01:15:11.759Z,14.88
2022-11-21T01:17:38.697Z,14.45
2022-11-21T01:20:07.176Z,15.63
2022-11-21T01:22:34.140Z,16.67
2022-11-21T01:25:01.070Z,15.90
2022-11-21T01:27:27.925Z,15.20
2022-11-21T01:29:54.882Z,15.70
2022-11-21T01:32:21.836Z,14.50
2022-11-21T01:34:48.675Z,19.25
2022-11-21T01:37:15.518Z,15.20
2022-11-21T01:39:42.455Z,14.35
2022-11-21T01:42:12.521Z,15.80
2022-11-21T01:44:51.344Z,15.32
2022-11-21T01:47:18.553Z,17.52
2022-11-21T01:49:47.108Z,16.75
2022-11-21T01:52:27.357Z,16.55
2022-11-21T01:55:02.724Z,16.08
2022-11-21T01:57:29.653Z,15.45
2022-11-21T02:00:10.564Z,13.63
2022-11-21T02:02:42.214Z,15.95
2022-11-21T02:05:16.700Z,15.43
2022-11-21T02:07:48.658Z,15.35
2022-11-21T02:10:16.729Z,15.13
2022-11-21T02:12:50.182Z,12.85
2022-11-21T02:15:23.455Z,16.05
2022-11-21T02:17:50.565Z,14.75
2022-11-21T02:20:20.899Z,17.30
2022-11-21T02:23:00.277Z,15.18
2022-11-21T02:25:30.175Z,13.90
2022-11-21T02:28:02.882Z,14.63
2022-11-21T02:30:32.938Z,17.55
2022-11-21T02:32:59.888Z,14.68
2022-11-21T02:35:26.780Z,15.52
2022-11-21T02:38:11.997Z,16.58
2022-11-21T02:40:43.980Z,17.58
2022-11-21T02:43:23.777Z,14.27
2022-11-21T02:45:50.847Z,17.05
2022-11-21T02:48:17.905Z,15.82
2022-11-21T02:50:46.705Z,15.45
2022-11-21T02:53:16.834Z,18.75
2022-11-21T02:55:44.897Z,17.05
2022-11-21T02:58:13.044Z,14.27
2022-11-21T03:00:41.662Z,16.70
2022-11-21T03:03:09.357Z,16.33
2022-11-21T03:05:37.555Z,16.35
2022-11-21T03:08:05.272Z,17.05
2022-11-21T03:10:32.323Z,17.38
2022-11-21T03:13:02.490Z,18.35
2022-11-21T03:15:31.888Z,16.08
2022-11-21T03:18:01.359Z,16.70
2022-11-21T03:20:29.131Z,18.58
2022-11-21T03:22:56.151Z,14.18
2022-11-21T03:25:23.142Z,15.43
2022-11-21T03:27:54.488Z,15.52
2022-11-21T03:30:23.038Z,16.73
2022-11-21T03:32:49.980Z,16.58
2022-11-21T03:35:17.102Z,16.50
2022-11-21T03:37:44.000Z,14.75
2022-11-21T03:40:11.879Z,15.45
2022-11-21T03:42:38.945Z,15.88
2022-11-21T03:45:07.749Z,16.05
2022-11-21T03:47:34.827Z,15.75
2022-11-21T03:50:01.757Z,16.40
2022-11-21T03:52:28.775Z,15.70
2022-11-21T03:54:55.658Z,15.88
2022-11-21T03:57:22.557Z,14.55
2022-11-21T03:59:49.372Z,15.88
2022-11-21T04:02:16.272Z,17.98
2022-11-21T04:04:43.151Z,17.23
2022-11-21T04:07:10.161Z,16.88
2022-11-21T04:09:37.153Z,13.95
2022-11-21T04:12:07.657Z,19.55
2022-11-21T04:14:35.287Z,14.13
2022-11-21T04:17:02.748Z,17.45
2022-11-21T04:19:29.677Z,16.17
2022-11-21T04:21:56.622Z,14.93
2022-11-21T04:24:23.752Z,16.85
2022-11-21T04:26:50.685Z,17.42
2022-11-21T04:29:17.547Z,17.17
2022-11-21T04:31:44.465Z,20.02
2022-11-21T04:34:11.340Z,15.25
2022-11-21T04:36:38.412Z,15.27
2022-11-21T04:39:05.663Z,14.98
2022-11-21T04:41:32.726Z,15.13
2022-11-21T04:43:59.926Z,14.05
2022-11-21T04:46:27.240Z,16.63
2022-11-21T04:48:54.288Z,16.38
2022-11-21T04:51:21.303Z,14.75
2022-11-21T04:53:48.522Z,16.75
2022-11-21T04:56:16.845Z,13.75
2022-11-21T04:58:45.025Z,15.32
2022-11-21T05:01:12.603Z,17.85
2022-11-21T05:03:40.254Z,15.48
2022-11-21T05:06:07.311Z,16.42
2022-11-21T05:08:34.624Z,14.75
2022-11-21T05:11:20.312Z,19.10
2022-11-21T05:13:47.758Z,19.17
2022-11-21T05:16:14.774Z,18.85
2022-11-21T05:18:41.692Z,16.42
2022-11-21T05:21:09.199Z,19.05
2022-11-21T05:23:36.374Z,14.40
2022-11-21T05:26:03.893Z,16.98
2022-11-21T05:28:31.000Z,17.80
2022-11-21T05:30:58.362Z,17.02
2022-11-21T05:33:25.657Z,21.02
2022-11-21T05:35:52.733Z,15.43
2022-11-21T05:38:19.798Z,14.32
2022-11-21T05:40:48.009Z,16.73
2022-11-21T05:43:35.935Z,17.70
2022-11-21T05:46:08.719Z,16.63
2022-11-21T05:48:40.524Z,16.40
2022-11-21T05:51:11.567Z,18.27
2022-11-21T05:53:39.761Z,20.67
2022-11-21T06:18:59.390Z,18.08
2022-11-21T06:21:44.531Z,20.13
2022-11-21T06:24:39.388Z,19.70
2022-11-21T06:35:03.753Z,17.58
2022-11-21T06:41:36.803Z,17.88
2022-11-21T06:44:37.429Z,18.10
2022-11-21T06:47:18.575Z,20.80
2022-11-21T06:51:11.044Z,20.35
2022-11-21T07:12:16.362Z,23.20
2022-11-21T07:14:50.041Z,22.67
2022-11-21T07:17:41.263Z,21.17
2022-11-21T07:20:21.839Z,22.38
2022-11-21T07:23:19.904Z,18.63
2022-11-21T07:25:52.552Z,19.33
2022-11-21T07:28:37.587Z,21.73
2022-11-21T07:31:14.326Z,15.48
2022-11-21T07:34:00.613Z,17.40
2022-11-21T07:36:40.878Z,17.48
2022-11-21T07:39:29.482Z,16.27
2022-11-21T07:42:34.234Z,19.63
2022-11-21T08:47:18.030Z,18.13
2022-11-21T08:52:50.858Z,18.80
2022-11-21T09:44:19.791Z,17.77
2022-11-21T09:56:44.473Z,18.52
2022-11-21T09:59:35.898Z,17.42
2022-11-21T10:02:31.715Z,21.00
2022-11-21T10:05:03.348Z,18.27
2022-11-21T10:07:39.705Z,16.75
2022-11-21T10:10:37.286Z,15.73
2022-11-21T10:14:19.228Z,16.55
2022-11-21T10:17:32.755Z,14.77
2022-11-21T10:20:29.429Z,14.90
2022-11-21T10:23:37.333Z,16.02
2022-11-21T10:26:34.620Z,15.57
2022-11-21T10:29:33.220Z,14.90
2022-11-21T10:40:28.632Z,14.45
2022-11-21T10:52:54.555Z,15.02
2022-11-21T10:59:37.461Z,16.23
2022-11-21T11:06:41.285Z,11.70
2022-11-21T11:22:48.065Z,12.15
2022-11-21T11:25:49.249Z,13.65
2022-11-21T11:38:43.918Z,13.35
2022-11-21T11:45:18.579Z,16.00
2022-11-21T11:51:35.764Z,16.27
2022-11-21T11:54:33.733Z,13.50
2022-11-21T11:57:08.314Z,16.70
2022-11-21T12:00:11.026Z,15.20
2022-11-21T12:03:00.096Z,15.20
2022-11-21T12:05:33.787Z,15.20
2022-11-21T12:08:40.764Z,13.45
2022-11-21T12:11:42.699Z,14.65
2022-11-21T12:18:02.906Z,14.75
2022-11-21T12:20:52.270Z,16.10
2022-11-21T12:23:23.787Z,14.88
2022-11-21T12:26:10.643Z,16.35
2022-11-21T12:29:00.704Z,18.10
2022-11-21T12:31:55.959Z,16.88
2022-11-21T12:34:52.653Z,15.43
2022-11-21T12:37:37.634Z,15.65
2022-11-21T12:40:31.134Z,15.57
2022-11-21T12:43:06.695Z,15.45
2022-11-21T12:45:45.114Z,16.08
2022-11-21T12:48:35.904Z,16.58
2022-11-21T12:51:44.188Z,18.30
2022-11-21T12:54:35.643Z,17.58
2022-11-21T12:57:14.120Z,15.43
2022-11-21T13:00:21.661Z,15.90
2022-11-21T13:03:15.366Z,14.13
2022-11-21T13:05:48.359Z,16.63
2022-11-21T13:08:28.561Z,17.88
2022-11-21T13:11:48.746Z,18.33
2022-11-21T13:14:35.219Z,16.08
2022-11-21T13:17:21.350Z,15.23
2022-11-21T13:20:27.902Z,15.63
2022-11-21T13:22:59.779Z,17.63
2022-11-21T13:25:33.623Z,16.23
2022-11-21T13:28:30.113Z,18.15
2022-11-21T13:31:00.568Z,17.88
2022-11-21T13:33:41.425Z,14.77
2022-11-21T13:36:31.442Z,16.40
2022-11-21T13:39:00.189Z,17.75
2022-11-21T13:42:00.211Z,20.60
2022-11-21T13:44:34.795Z,14.95
2022-11-21T13:47:07.700Z,16.75
2022-11-21T13:49:43.641Z,17.45
2022-11-21T13:52:27.382Z,15.25
2022-11-21T13:55:20.734Z,26.05
2022-11-21T13:58:21.310Z,18.33
2022-11-21T14:01:18.339Z,17.58
2022-11-21T14:06:22.286Z,16.17
2022-11-21T14:09:18.038Z,16.55
2022-11-21T14:11:59.047Z,17.50
2022-11-21T14:14:30.870Z,16.92
2022-11-21T14:17:10.190Z,20.88
2022-11-21T14:19:37.919Z,21.15
2022-11-21T14:22:05.273Z,17.95
2022-11-21T14:24:34.254Z,14.63
2022-11-21T14:27:11.637Z,16.45
2022-11-21T14:29:42.020Z,19.05
2022-11-21T14:32:16.690Z,17.90
2022-11-21T14:34:44.934Z,21.70
2022-11-21T14:37:14.776Z,19.35
2022-11-21T14:39:44.908Z,19.00
2022-11-21T14:42:18.327Z,17.50
2022-11-21T14:47:32.640Z,16.38
2022-11-21T14:50:07.450Z,17.77
2022-11-21T14:52:43.698Z,16.15
2022-11-21T14:58:02.456Z,18.05
2022-11-21T15:00:58.763Z,16.92
2022-11-21T15:03:27.521Z,17.63
2022-11-21T15:06:06.437Z,17.77
2022-11-21T15:11:44.944Z,17.67
2022-11-21T15:14:37.655Z,15.07
2022-11-21T15:17:13.331Z,18.33
2022-11-21T15:19:43.213Z,17.77
2022-11-21T15:22:29.288Z,15.25
2022-11-21T15:25:16.763Z,16.30
2022-11-21T15:27:49.514Z,20.92
2022-11-21T15:30:25.171Z,17.50
2022-11-21T15:33:10.847Z,19.45
2022-11-21T15:35:43.365Z,21.75
2022-11-21T15:38:29.504Z,20.73
2022-11-21T15:41:02.180Z,20.83
2022-11-21T15:43:37.904Z,28.63
2022-11-21T15:46:17.705Z,25.05
2022-11-21T15:48:55.911Z,18.98
2022-11-21T15:52:00.060Z,19.83
2022-11-21T15:54:27.627Z,18.65
2022-11-21T15:56:55.854Z,17.10
2022-11-21T15:59:23.127Z,18.55
2022-11-21T16:01:53.942Z,17.88
2022-11-21T16:04:25.604Z,19.27
2022-11-21T16:06:54.476Z,20.42
2022-11-21T16:09:21.688Z,27.52
2022-11-21T16:11:48.921Z,22.70
2022-11-21T16:14:18.587Z,18.00
2022-11-21T16:16:47.365Z,18.27
2022-11-21T16:19:18.256Z,23.50
2022-11-21T16:21:45.723Z,17.52
2022-11-21T16:24:14.206Z,21.17
2022-11-21T16:26:47.122Z,17.95
2022-11-21T16:29:18.054Z,17.63
2022-11-21T16:31:45.790Z,21.48
2022-11-21T16:34:13.314Z,18.30
2022-11-21T16:36:40.722Z,16.83
2022-11-21T16:39:13.582Z,20.85
2022-11-21T16:41:46.081Z,21.25
2022-11-21T16:44:15.194Z,17.85
2022-11-21T16:46:47.100Z,17.60
2022-11-21T16:49:19.800Z,17.33
2022-11-21T16:51:49.744Z,18.70
2022-11-21T16:54:17.550Z,18.00
2022-11-21T16:56:49.487Z,19.85
2022-11-21T16:59:17.554Z,15.25
2022-11-21T17:01:47.824Z,22.58
2022-11-21T17:04:17.453Z,28.77
2022-11-21T17:06:50.377Z,19.88
2022-11-21T17:09:26.495Z,19.73
2022-11-21T17:14:32.689Z,17.92
2022-11-21T17:17:02.168Z,20.15
2022-11-21T17:19:35.469Z,19.05
2022-11-21T17:22:03.818Z,19.55
2022-11-21T17:24:32.652Z,19.02
2022-11-21T17:27:06.411Z,19.33
2022-11-21T17:29:34.242Z,19.13
2022-11-21T17:32:01.986Z,20.42
2022-11-21T17:34:33.400Z,19.25
2022-11-21T17:37:03.440Z,18.55
2022-11-21T17:39:31.089Z,17.95
2022-11-21T17:42:12.017Z,18.77
2022-11-21T17:44:41.043Z,19.73
2022-11-21T17:47:12.753Z,16.83
2022-11-21T17:49:40.340Z,17.98
2022-11-21T17:52:09.526Z,14.82
2022-11-21T17:57:27.415Z,18.52
2022-11-21T18:00:00.852Z,14.50
2022-11-21T18:02:35.558Z,17.20
2022-11-21T18:05:03.695Z,18.05
2022-11-21T18:07:35.647Z,15.55
2022-11-21T18:10:27.304Z,14.13
2022-11-21T18:12:51.573Z,18.67
2022-11-21T18:15:25.376Z,18.63
2022-11-21T18:17:57.568Z,18.52
2022-11-21T18:20:30.745Z,19.08
2022-11-21T18:25:37.678Z,20.88
2022-11-21T18:28:06.399Z,17.08
2022-11-21T18:30:36.178Z,18.63
2022-11-21T18:33:07.242Z,19.10
2022-11-21T18:35:40.110Z,18.25
2022-11-21T18:38:08.385Z,17.90
2022-11-21T18:40:36.656Z,17.00
2022-11-21T18:43:06.054Z,16.50
2022-11-21T18:45:34.688Z,18.13
2022-11-21T18:48:04.330Z,17.00
2022-11-21T18:50:34.722Z,19.77
2022-11-21T18:53:04.091Z,15.75
2022-11-21T18:55:34.893Z,17.55
2022-11-21T18:58:05.384Z,18.20
2022-11-21T19:00:34.544Z,17.58
2022-11-21T19:03:13.175Z,16.48
2022-11-21T19:05:46.745Z,17.17
2022-11-21T19:08:15.617Z,16.17
2022-11-21T19:10:47.073Z,17.98
2022-11-21T19:13:16.937Z,18.90
2022-11-21T19:15:44.929Z,18.58
2022-11-21T19:18:16.946Z,18.58
2022-11-21T19:20:44.759Z,18.17
2022-11-21T19:23:13.932Z,18.13
2022-11-21T19:25:43.163Z,17.65
2022-11-21T19:28:12.728Z,17.45
2022-11-21T19:30:41.659Z,17.00
2022-11-21T19:33:09.536Z,15.45
2022-11-21T19:35:41.022Z,12.75
2022-11-21T19:38:10.709Z,18.98
2022-11-21T19:41:02.405Z,16.67
2022-11-21T19:43:36.869Z,17.70
2022-11-21T19:46:06.009Z,17.02
2022-11-21T19:48:34.746Z,15.23
2022-11-21T19:51:04.528Z,19.85
2022-11-21T19:53:43.085Z,20.50
2022-11-21T19:56:18.400Z,17.20
2022-11-21T19:58:47.298Z,17.83
2022-11-21T20:01:19.881Z,17.13
2022-11-21T20:03:49.976Z,19.15
2022-11-21T20:06:19.474Z,18.15
2022-11-21T20:09:02.996Z,21.48
2022-11-21T20:11:33.639Z,19.77
2022-11-21T20:14:05.174Z,20.70
2022-11-21T20:16:43.560Z,21.45
2022-11-21T20:19:15.370Z,21.60
2022-11-21T20:21:45.896Z,22.13
2022-11-21T20:24:17.944Z,22.00
2022-11-21T20:26:48.151Z,20.05
2022-11-21T20:29:16.401Z,20.13
2022-11-21T20:31:45.420Z,20.88
2022-11-21T20:34:13.994Z,19.00
2022-11-21T20:36:45.284Z,23.33
2022-11-21T20:39:20.873Z,21.73
2022-11-21T20:41:48.652Z,26.58
2022-11-21T20:47:10.810Z,21.83
2022-11-21T20:49:40.102Z,21.02
2022-11-21T20:54:58.464Z,21.63
2022-11-21T20:57:28.341Z,23.50
2022-11-21T20:59:58.244Z,17.20
2022-11-21T21:02:25.832Z,22.90
2022-11-21T21:04:54.714Z,23.45
2022-11-21T21:07:21.826Z,31.75
2022-11-21T21:09:49.494Z,24.02
2022-11-21T21:12:19.018Z,22.80
2022-11-21T21:14:46.718Z,23.15
2022-11-21T21:17:14.681Z,23.90
2022-11-21T21:19:42.896Z,27.95
2022-11-21T21:22:13.664Z,23.98
2022-11-21T21:24:45.348Z,29.98
2022-11-21T21:27:15.159Z,33.78
2022-11-21T21:29:43.267Z,29.40
2022-11-21T21:32:10.985Z,34.00
2022-11-21T21:34:39.009Z,29.83
2022-11-21T21:37:06.211Z,27.42
2022-11-21T21:39:33.786Z,22.88
2022-11-21T21:42:01.995Z,23.48
2022-11-21T21:44:33.494Z,22.05
2022-11-21T21:47:02.636Z,22.95
2022-11-21T21:49:32.110Z,27.00
2022-11-21T21:51:59.475Z,21.73
2022-11-21T21:54:27.224Z,22.63
2022-11-21T21:56:55.057Z,22.35
2022-11-21T21:59:23.267Z,25.13
2022-11-21T22:01:51.172Z,20.52
2022-11-21T22:04:20.128Z,21.38
2022-11-21T22:06:47.582Z,23.00
2022-11-21T22:09:15.198Z,26.45
2022-11-21T22:11:42.687Z,25.23
2022-11-21T22:14:17.038Z,27.63
2022-11-21T22:16:44.702Z,26.17
2022-11-21T22:19:11.974Z,25.45
2022-11-21T22:21:39.783Z,27.55
2022-11-21T22:24:26.686Z,26.88
2022-11-21T22:26:55.020Z,27.15
2022-11-21T22:29:22.728Z,32.63
2022-11-21T22:31:50.983Z,27.50
2022-11-21T22:34:18.715Z,29.10
2022-11-21T22:36:46.895Z,27.02
2022-11-21T22:39:15.822Z,25.50
2022-11-21T22:41:43.521Z,24.90
2022-11-21T22:44:11.132Z,27.58
2022-11-21T22:46:38.421Z,25.00
2022-11-21T22:49:05.535Z,30.98
2022-11-21T22:51:32.920Z,29.10
2022-11-21T22:53:59.755Z,31.10
2022-11-21T22:56:27.304Z,26.73
2022-11-21T22:58:54.444Z,25.88
2022-11-21T23:01:24.085Z,28.85
2022-11-21T23:03:51.659Z,28.90
2022-11-21T23:06:18.622Z,31.13
2022-11-21T23:08:46.016Z,28.42
2022-11-21T23:11:19.385Z,23.65
2022-11-21T23:13:48.040Z,22.63
2022-11-21T23:16:16.007Z,28.08
2022-11-21T23:18:43.740Z,26.02
2022-11-21T23:21:11.715Z,27.38
2022-11-21T23:23:38.753Z,23.23
2022-11-21T23:26:05.763Z,23.52
2022-11-21T23:28:33.146Z,23.98
2022-11-21T23:31:00.171Z,22.60
2022-11-21T23:33:27.217Z,23.67
2022-11-21T23:35:54.214Z,25.30
2022-11-21T23:38:21.978Z,24.65
2022-11-21T23:40:50.165Z,25.13
2022-11-21T23:43:18.047Z,30.75
2022-11-21T23:45:49.854Z,24.67
2022-11-21T23:48:16.768Z,24.40
2022-11-21T23:50:44.033Z,26.42
2022-11-21T23:53:11.040Z,31.63
2022-11-21T23:55:38.293Z,31.48
2022-11-21T23:58:05.323Z,28.65
